Time;durP1;ratioP1;P1;durP2;ratioP2;P2;SDS_P1;SDS_P2;PMS_P1;PMS_P2;Temp;Humidity;BMP_temperature;BMP_pressure;BME280_temperature;BME280_humidity;BME280_pressure;Samples;Min_cycle;Max_cycle;Signal;HPM_P1;HPM_P2
2022/07/04 00:00:59;;;;;;;150.75;136.57;;;17.00;90.80;;;;;;4978589;28;20051;-85
2022/07/04 00:03:26;;;;;;;149.60;135.70;;;17.00;90.90;;;;;;4978498;28;20529;-85
2022/07/04 00:05:53;;;;;;;149.90;135.90;;;17.00;91.00;;;;;;4995014;28;20086;-84
2022/07/04 00:08:20;;;;;;;153.95;139.18;;;16.90;91.00;;;;;;5010886;28;20051;-85
2022/07/04 00:10:47;;;;;;;148.45;134.60;;;16.90;90.80;;;;;;4994128;28;20595;-86
2022/07/04 00:13:15;;;;;;;150.98;136.98;;;16.90;91.00;;;;;;4978360;28;20141;-85
2022/07/04 00:15:42;;;;;;;146.70;132.70;;;16.80;91.00;;;;;;4994805;28;20890;-85
2022/07/04 00:18:09;;;;;;;148.00;134.30;;;16.80;91.00;;;;;;4994504;28;20043;-85
2022/07/04 00:20:36;;;;;;;148.98;135.07;;;16.80;91.10;;;;;;4978749;28;20157;-85
2022/07/04 00:23:03;;;;;;;151.45;137.30;;;16.70;91.10;;;;;;4994921;28;20814;-85
2022/07/04 00:25:30;;;;;;;149.82;135.85;;;16.60;91.30;;;;;;4993206;28;20083;-85
2022/07/04 00:27:57;;;;;;;151.65;137.45;;;16.60;91.50;;;;;;4978807;28;20877;-86
2022/07/04 00:30:25;;;;;;;149.40;135.50;;;16.50;91.60;;;;;;4978523;28;20054;-84
2022/07/04 00:32:53;;;;;;;150.30;136.23;;;16.50;91.50;;;;;;4978943;28;20141;-85
2022/07/04 00:35:20;;;;;;;151.05;136.77;;;16.40;91.20;;;;;;4995155;28;20427;-85
2022/07/04 00:37:47;;;;;;;151.48;137.27;;;16.40;91.30;;;;;;4977569;28;20113;-85
2022/07/04 00:40:13;;;;;;;150.98;136.68;;;16.40;91.50;;;;;;4994612;28;20054;-85
2022/07/04 00:42:40;;;;;;;150.27;135.95;;;16.30;91.60;;;;;;4994388;28;20581;-85
2022/07/04 00:45:09;;;;;;;151.35;137.05;;;16.20;91.70;;;;;;4978077;28;20134;-85
2022/07/04 00:47:37;;;;;;;151.05;136.77;;;16.30;91.90;;;;;;4978203;28;20051;-85
2022/07/04 00:50:04;;;;;;;149.95;135.80;;;16.30;92.00;;;;;;4994264;28;20058;-84
2022/07/04 00:52:31;;;;;;;151.43;137.05;;;16.20;92.00;;;;;;4977885;28;20556;-85
2022/07/04 00:55:00;;;;;;;149.77;135.68;;;16.20;92.10;;;;;;4978008;28;20050;-84
2022/07/04 00:57:27;;;;;;;151.52;136.90;;;16.10;92.00;;;;;;4975691;28;20062;-85
2022/07/04 00:59:54;;;;;;;149.63;135.23;;;16.10;92.30;;;;;;4993984;28;20055;-85
2022/07/04 01:02:21;;;;;;;150.23;135.63;;;16.10;92.40;;;;;;4993871;28;20501;-85
2022/07/04 01:04:49;;;;;;;149.43;134.93;;;16.00;92.50;;;;;;4993920;28;20058;-85
2022/07/04 01:07:17;;;;;;;149.88;135.38;;;16.00;92.60;;;;;;4993568;28;20145;-85
2022/07/04 01:09:45;;;;;;;148.82;134.38;;;16.00;92.70;;;;;;4994022;28;20489;-85
2022/07/04 01:12:24;;;;;;;147.27;133.00;;;15.90;92.80;;;;;;4993919;28;20083;-86
2022/07/04 01:14:51;;;;;;;148.65;134.05;;;15.90;92.70;;;;;;4977922;28;20130;-84
2022/07/04 01:17:18;;;;;;;151.52;136.88;;;15.90;92.70;;;;;;4993769;28;20467;-85
2022/07/04 01:19:45;;;;;;;150.05;135.48;;;15.90;92.80;;;;;;4994143;28;20058;-85
2022/07/04 01:22:15;;;;;;;148.02;133.70;;;15.80;92.90;;;;;;4977654;28;20086;-86
2022/07/04 01:24:41;;;;;;;149.43;134.93;;;15.80;93.00;;;;;;4993447;28;20047;-84
2022/07/04 01:27:08;;;;;;;150.95;136.25;;;15.80;93.00;;;;;;4993448;28;20050;-85
2022/07/04 01:29:35;;;;;;;147.30;132.98;;;15.80;93.00;;;;;;4993644;28;20429;-85
2022/07/04 01:32:05;;;;;;;151.25;136.10;;;15.70;92.70;;;;;;4978665;28;20391;-85
2022/07/04 01:34:32;;;;;;;149.07;134.73;;;15.70;92.80;;;;;;4973603;28;20138;-85
2022/07/04 01:36:59;;;;;;;147.90;133.32;;;15.70;92.90;;;;;;4990200;28;20057;-85
2022/07/04 01:39:28;;;;;;;148.45;133.95;;;15.70;92.80;;;;;;4973939;28;20146;-85
2022/07/04 01:41:56;;;;;;;147.40;133.07;;;15.70;92.90;;;;;;4974103;28;20050;-85
2022/07/04 01:44:23;;;;;;;147.35;132.95;;;15.70;93.00;;;;;;4957515;28;20059;-84
2022/07/04 01:46:50;;;;;;;145.25;131.07;;;15.60;92.90;;;;;;4973866;28;20063;-85
2022/07/04 01:49:17;;;;;;;145.68;131.68;;;15.60;92.90;;;;;;4973643;28;20133;-85
2022/07/04 01:51:47;;;;;;;148.07;133.85;;;15.60;93.00;;;;;;4974021;28;20079;-85
2022/07/04 01:54:14;;;;;;;146.82;132.52;;;15.60;93.00;;;;;;4973900;28;20134;-85
2022/07/04 01:56:43;;;;;;;146.32;132.23;;;15.60;93.10;;;;;;4973895;28;20063;-85
2022/07/04 01:59:10;;;;;;;146.43;132.23;;;15.60;93.30;;;;;;4973519;28;20083;-84
2022/07/04 02:01:37;;;;;;;144.25;130.13;;;15.50;93.40;;;;;;4973595;28;20062;-85
2022/07/04 02:04:06;;;;;;;145.93;131.35;;;15.50;93.40;;;;;;4976667;28;20051;-85
2022/07/04 02:06:33;;;;;;;144.43;130.32;;;15.50;93.30;;;;;;4976738;28;20053;-85
2022/07/04 02:09:19;;;;;;;147.35;132.85;;;15.50;93.20;;;;;;4976462;28;20050;-85
2022/07/04 02:14:33;;;;;;;145.50;131.27;;;15.50;93.00;;;;;;4992743;28;20051;-85
2022/07/04 02:17:01;;;;;;;146.00;131.60;;;15.50;93.00;;;;;;4976636;28;20086;-84
2022/07/04 02:19:28;;;;;;;145.25;131.05;;;15.40;93.00;;;;;;4992741;28;20046;-84
2022/07/04 02:21:55;;;;;;;145.88;131.65;;;15.50;93.00;;;;;;4992902;28;20150;-85
2022/07/04 02:24:22;;;;;;;142.77;128.88;;;15.40;93.00;;;;;;4992962;28;20142;-84
2022/07/04 02:26:50;;;;;;;146.48;131.68;;;15.40;93.00;;;;;;4992788;28;20588;-85
2022/07/04 02:29:17;;;;;;;147.38;132.77;;;15.40;93.00;;;;;;4992306;28;20065;-85
2022/07/04 02:31:44;;;;;;;145.55;131.30;;;15.40;92.80;;;;;;4976240;28;20047;-85
2022/07/04 02:34:12;;;;;;;151.02;130.85;;;15.30;92.80;;;;;;4993140;28;20074;-85
2022/07/04 02:36:39;;;;;;;143.20;128.90;;;15.30;92.80;;;;;;4996476;28;20133;-84
2022/07/04 02:39:06;;;;;;;141.77;128.00;;;15.40;92.90;;;;;;4979678;28;20055;-85
2022/07/04 02:41:34;;;;;;;142.77;128.95;;;15.30;92.90;;;;;;4995972;28;20626;-84
2022/07/04 02:44:02;;;;;;;143.43;129.43;;;15.30;92.90;;;;;;4995957;28;20133;-85
2022/07/04 02:46:32;;;;;;;144.93;130.70;;;15.30;92.80;;;;;;4979559;28;20058;-86
2022/07/04 02:48:59;;;;;;;149.98;134.77;;;15.20;92.80;;;;;;4982041;28;20058;-85
2022/07/04 02:51:26;;;;;;;148.18;133.57;;;15.30;92.90;;;;;;4976059;28;20504;-85
2022/07/04 02:53:53;;;;;;;150.45;135.27;;;15.20;93.00;;;;;;4992270;28;20118;-84
2022/07/04 02:56:20;;;;;;;148.63;133.95;;;15.20;93.30;;;;;;4976256;28;20066;-85
2022/07/04 02:58:47;;;;;;;150.68;135.93;;;15.20;93.60;;;;;;4992144;28;20047;-84
2022/07/04 03:01:16;;;;;;;151.02;136.00;;;15.10;93.90;;;;;;4976126;28;20149;-84
2022/07/04 03:03:43;;;;;;;149.15;134.45;;;15.10;93.90;;;;;;4976100;28;20082;-84
2022/07/04 03:06:11;;;;;;;148.93;134.05;;;15.10;93.90;;;;;;4975956;28;20143;-83
2022/07/04 03:08:38;;;;;;;144.55;130.38;;;15.10;94.10;;;;;;4992201;28;20771;-84
2022/07/04 03:11:05;;;;;;;146.75;132.48;;;15.00;94.20;;;;;;4959735;28;20074;-84
2022/07/04 03:13:32;;;;;;;146.45;132.07;;;15.00;94.30;;;;;;4976054;28;20107;-84
2022/07/04 03:15:59;;;;;;;149.43;134.23;;;15.00;94.30;;;;;;4976085;28;20047;-84
2022/07/04 03:18:27;;;;;;;146.65;132.23;;;15.00;94.40;;;;;;4975798;28;20070;-84
2022/07/04 03:20:54;;;;;;;148.65;133.77;;;15.00;94.50;;;;;;4975867;28;20079;-84
2022/07/04 03:23:21;;;;;;;149.68;134.50;;;14.90;94.50;;;;;;4978290;28;20150;-85
2022/07/04 03:25:48;;;;;;;152.02;136.52;;;14.90;94.60;;;;;;4979048;28;20098;-85
2022/07/04 03:28:15;;;;;;;158.27;141.88;;;14.90;94.60;;;;;;4979072;28;20059;-84
2022/07/04 03:30:42;;;;;;;151.30;135.60;;;14.90;94.70;;;;;;4994850;28;20057;-84
2022/07/04 03:33:09;;;;;;;156.93;140.63;;;14.90;94.70;;;;;;4978825;28;20540;-84
2022/07/04 03:35:38;;;;;;;155.25;138.95;;;14.90;94.90;;;;;;4995570;28;20059;-84
2022/07/04 03:38:04;;;;;;;152.63;137.13;;;14.80;94.80;;;;;;4978450;28;20057;-85
2022/07/04 03:40:32;;;;;;;154.40;138.40;;;14.80;94.80;;;;;;4995218;28;20493;-85
2022/07/04 03:42:59;;;;;;;155.63;139.73;;;14.80;94.80;;;;;;4994562;28;20146;-84
2022/07/04 03:45:26;;;;;;;157.40;141.20;;;14.80;94.90;;;;;;4978087;28;20065;-83
2022/07/04 03:47:53;;;;;;;156.27;139.77;;;14.80;94.90;;;;;;4978136;28;20086;-85
2022/07/04 03:50:20;;;;;;;156.70;140.60;;;14.70;94.90;;;;;;4995083;28;20133;-84
2022/07/04 03:52:49;;;;;;;153.40;137.90;;;14.70;95.00;;;;;;4994994;28;20513;-85
2022/07/04 03:55:16;;;;;;;154.02;138.60;;;14.70;95.00;;;;;;4975443;28;20063;-83
2022/07/04 03:57:43;;;;;;;159.77;143.30;;;14.70;95.00;;;;;;4959295;28;20142;-84
2022/07/04 04:00:11;;;;;;;154.25;138.48;;;14.70;95.10;;;;;;4959368;28;20150;-84
2022/07/04 04:02:41;;;;;;;155.48;139.57;;;14.70;95.20;;;;;;4991476;28;20055;-84
2022/07/04 04:07:55;;;;;;;150.60;135.30;;;14.60;95.20;;;;;;4991611;28;20062;-84
2022/07/04 04:10:22;;;;;;;150.68;134.88;;;14.60;95.20;;;;;;4975719;28;20059;-84
2022/07/04 04:13:14;;;;;;;151.52;135.82;;;14.60;95.30;;;;;;4992897;28;20429;-85
2022/07/04 04:15:41;;;;;;;155.50;139.23;;;14.60;95.40;;;;;;4975507;28;20055;-83
2022/07/04 04:18:08;;;;;;;153.63;137.65;;;14.60;95.50;;;;;;4991012;28;20059;-85
2022/07/04 04:20:35;;;;;;;157.85;141.05;;;14.60;95.60;;;;;;4975355;28;20051;-85
2022/07/04 04:23:03;;;;;;;151.40;135.32;;;14.60;95.70;;;;;;4992059;28;20047;-84
2022/07/04 04:25:30;;;;;;;151.52;136.07;;;14.60;95.80;;;;;;4976019;28;20063;-85
2022/07/04 04:27:57;;;;;;;155.70;139.57;;;14.60;95.90;;;;;;4974922;28;20133;-85
2022/07/04 04:30:24;;;;;;;159.43;142.50;;;14.60;96.00;;;;;;4974880;28;20133;-85
2022/07/04 04:32:51;;;;;;;152.32;136.43;;;14.50;96.10;;;;;;4959304;28;20244;-84
2022/07/04 04:35:19;;;;;;;157.98;141.57;;;14.50;96.40;;;;;;4975008;28;20580;-84
2022/07/04 04:37:46;;;;;;;157.23;140.80;;;14.50;96.30;;;;;;4974792;28;20059;-85
2022/07/04 04:40:14;;;;;;;153.57;138.02;;;14.50;96.40;;;;;;4974912;28;20079;-84
2022/07/04 04:42:41;;;;;;;150.32;134.93;;;14.50;96.70;;;;;;4974431;28;20067;-85
2022/07/04 04:45:09;;;;;;;153.07;137.05;;;14.50;96.70;;;;;;4975047;28;20074;-84
2022/07/04 04:47:36;;;;;;;155.60;139.13;;;14.50;96.80;;;;;;4974720;28;20151;-84
2022/07/04 04:50:03;;;;;;;156.13;139.63;;;14.50;96.90;;;;;;4974676;28;20055;-84
2022/07/04 04:52:30;;;;;;;154.07;137.68;;;14.60;97.10;;;;;;4974731;28;20134;-84
2022/07/04 04:54:57;;;;;;;159.35;141.85;;;14.60;97.20;;;;;;4958173;28;20059;-83
2022/07/04 04:57:25;;;;;;;153.82;138.52;;;14.60;97.30;;;;;;4957725;28;20150;-84
2022/07/04 04:59:52;;;;;;;159.05;143.10;;;14.70;97.50;;;;;;4974669;28;20138;-84
2022/07/04 05:02:19;;;;;;;149.07;134.82;;;14.70;97.50;;;;;;4983116;28;20707;-84
2022/07/04 05:04:46;;;;;;;150.75;135.90;;;14.80;97.40;;;;;;4974542;28;20066;-83
2022/07/04 05:07:13;;;;;;;145.23;130.50;;;14.80;97.50;;;;;;4975572;28;20055;-83
2022/07/04 05:09:40;;;;;;;147.07;131.93;;;14.80;97.50;;;;;;4974397;28;20581;-84
2022/07/04 05:12:07;;;;;;;142.55;127.60;;;14.90;97.60;;;;;;4974167;28;20154;-83
2022/07/04 05:14:36;;;;;;;144.15;129.45;;;14.90;97.80;;;;;;4990510;28;20142;-83
2022/07/04 05:17:03;;;;;;;143.43;128.77;;;14.90;97.80;;;;;;4973712;28;20487;-83
2022/07/04 05:19:30;;;;;;;142.00;127.88;;;14.90;97.80;;;;;;4974013;28;20055;-83
2022/07/04 05:21:57;;;;;;;143.63;129.13;;;15.00;97.90;;;;;;4990287;28;20055;-83
2022/07/04 05:24:24;;;;;;;144.10;129.23;;;15.00;97.90;;;;;;4973993;28;20051;-83
2022/07/04 05:26:51;;;;;;;145.30;130.43;;;15.10;98.10;;;;;;4974188;28;20078;-84
2022/07/04 05:29:18;;;;;;;142.52;128.00;;;15.10;98.20;;;;;;4973659;28;20052;-84
2022/07/04 05:31:46;;;;;;;142.70;128.48;;;15.20;98.10;;;;;;4973713;28;20135;-84
2022/07/04 05:34:13;;;;;;;145.57;130.98;;;15.20;98.20;;;;;;4974258;28;20063;-84
2022/07/04 05:36:40;;;;;;;145.20;130.50;;;15.20;98.20;;;;;;4974347;28;20085;-83
2022/07/04 05:39:07;;;;;;;142.23;127.72;;;15.30;98.30;;;;;;4973982;28;20065;-83
2022/07/04 05:41:34;;;;;;;146.35;131.23;;;15.30;98.30;;;;;;4974122;28;20047;-84
2022/07/04 05:47:01;;;;;;;140.48;126.03;;;15.40;98.40;;;;;;4990601;28;20084;-83
2022/07/04 05:49:28;;;;;;;144.13;129.35;;;15.50;98.60;;;;;;4992795;28;20520;-83
2022/07/04 05:51:55;;;;;;;143.73;128.98;;;15.50;98.50;;;;;;4991941;28;20063;-83
2022/07/04 05:54:22;;;;;;;146.95;131.98;;;15.60;98.50;;;;;;4991861;28;20138;-83
2022/07/04 05:56:49;;;;;;;145.73;130.65;;;15.60;98.40;;;;;;4991509;28;20133;-83
2022/07/04 05:59:16;;;;;;;147.23;131.43;;;15.70;98.40;;;;;;5006921;28;20065;-83
2022/07/04 06:01:47;;;;;;;145.13;129.82;;;15.70;98.30;;;;;;4992244;28;20059;-85
2022/07/04 06:04:15;;;;;;;151.75;136.30;;;15.80;98.30;;;;;;4991217;28;20055;-84
2022/07/04 06:06:43;;;;;;;155.63;140.00;;;15.80;98.30;;;;;;4990512;28;20055;-83
2022/07/04 06:09:10;;;;;;;154.05;138.45;;;15.80;98.20;;;;;;4988798;28;20042;-82
2022/07/04 06:11:37;;;;;;;157.63;141.38;;;15.80;98.30;;;;;;4974796;28;20141;-82
2022/07/04 06:14:03;;;;;;;156.35;139.55;;;15.90;98.30;;;;;;4990395;28;20086;-83
2022/07/04 06:16:31;;;;;;;158.40;141.68;;;15.90;98.30;;;;;;4990418;28;20114;-83
2022/07/04 06:18:58;;;;;;;159.50;142.30;;;16.00;98.20;;;;;;4990590;28;20075;-82
2022/07/04 06:21:27;;;;;;;154.93;138.02;;;16.00;98.30;;;;;;4992507;28;20065;-83
2022/07/04 06:23:54;;;;;;;156.52;140.85;;;16.10;98.30;;;;;;4992919;28;20054;-85
2022/07/04 06:26:20;;;;;;;153.77;138.10;;;16.20;98.30;;;;;;4992413;28;20106;-84
2022/07/04 06:28:47;;;;;;;150.25;135.15;;;16.20;98.20;;;;;;4976411;28;20047;-83
2022/07/04 06:31:15;;;;;;;150.80;135.30;;;16.20;98.30;;;;;;4992471;28;20134;-84
2022/07/04 06:36:23;;;;;;;151.00;135.05;;;16.30;98.40;;;;;;4991394;28;20046;-84
2022/07/04 06:38:51;;;;;;;154.32;137.95;;;16.40;98.30;;;;;;4975827;28;20102;-85
2022/07/04 06:41:18;;;;;;;150.30;135.07;;;16.50;98.30;;;;;;4973129;28;20063;-85
2022/07/04 06:43:45;;;;;;;149.98;134.73;;;16.50;98.30;;;;;;5008815;28;20133;-85
2022/07/04 06:46:12;;;;;;;153.32;138.00;;;16.50;98.40;;;;;;4992742;28;20501;-83
2022/07/04 06:48:39;;;;;;;154.15;138.30;;;16.60;98.30;;;;;;4993005;28;20057;-87
2022/07/04 06:51:06;;;;;;;152.00;136.63;;;16.60;98.30;;;;;;4994628;28;21116;-90
2022/07/04 06:53:33;;;;;;;161.80;144.88;;;16.70;98.20;;;;;;4995715;28;20141;-89
2022/07/04 06:56:01;;;;;;;153.30;137.80;;;16.80;98.10;;;;;;4995047;28;20485;-89
2022/07/04 06:58:28;;;;;;;158.52;142.82;;;16.80;98.30;;;;;;4994180;28;20086;-86
2022/07/04 07:00:55;;;;;;;152.75;137.52;;;16.90;98.30;;;;;;4993718;28;20082;-89
2022/07/04 07:03:22;;;;;;;154.35;139.05;;;16.90;98.20;;;;;;4993583;28;20051;-92
2022/07/04 07:05:58;;;;;;;155.88;140.48;;;17.00;98.10;;;;;;4978264;28;20059;-91
2022/07/04 07:08:28;;;;;;;165.38;149.38;;;17.00;98.20;;;;;;4983582;28;20509;-89
2022/07/04 07:10:55;;;;;;;165.15;148.50;;;17.00;98.10;;;;;;4995138;28;20055;-88
2022/07/04 07:13:23;;;;;;;165.43;149.20;;;17.10;98.10;;;;;;4994099;28;20051;-88
2022/07/04 07:15:50;;;;;;;162.93;146.52;;;17.20;98.10;;;;;;4994443;28;20075;-89
2022/07/04 07:18:17;;;;;;;170.27;153.85;;;17.20;98.10;;;;;;4977384;28;20102;-85
2022/07/04 07:20:44;;;;;;;168.98;152.35;;;17.20;98.20;;;;;;4977040;28;20054;-83
2022/07/04 07:23:11;;;;;;;159.18;143.88;;;17.30;98.20;;;;;;4980566;28;20050;-89
2022/07/04 07:25:38;;;;;;;156.40;141.88;;;17.40;98.10;;;;;;4998355;28;20079;-91
2022/07/04 07:28:05;;;;;;;163.70;147.85;;;17.40;98.10;;;;;;5003617;28;20533;-88
2022/07/04 07:30:33;;;;;;;161.25;144.82;;;17.50;98.10;;;;;;4997803;28;20047;-89
2022/07/04 07:33:00;;;;;;;175.20;158.07;;;17.60;98.20;;;;;;4996827;28;20105;-85
2022/07/04 07:35:27;;;;;;;169.63;153.68;;;17.60;98.10;;;;;;4997448;28;20078;-87
2022/07/04 07:37:54;;;;;;;178.02;160.40;;;17.70;97.90;;;;;;4994941;28;20496;-86
2022/07/04 07:40:21;;;;;;;173.18;156.18;;;17.80;97.90;;;;;;4994701;28;20137;-86
2022/07/04 07:42:48;;;;;;;164.77;148.70;;;17.90;97.90;;;;;;4995270;28;20051;-86
2022/07/04 07:45:15;;;;;;;158.95;143.75;;;17.90;97.70;;;;;;5010954;28;20066;-86
2022/07/04 07:47:44;;;;;;;159.07;143.95;;;17.90;97.60;;;;;;4994914;28;20086;-89
2022/07/04 07:50:10;;;;;;;166.50;150.45;;;18.00;97.60;;;;;;4993721;28;20051;-84
2022/07/04 07:52:37;;;;;;;168.48;152.45;;;18.00;97.50;;;;;;4994685;28;20166;-85
2022/07/04 07:55:06;;;;;;;158.65;143.07;;;18.00;97.40;;;;;;4978296;28;20077;-84
2022/07/04 07:57:33;;;;;;;152.90;138.20;;;18.10;97.30;;;;;;4994811;28;20263;-85
2022/07/04 08:00:00;;;;;;;167.68;150.55;;;18.10;97.30;;;;;;4994097;28;20054;-85
2022/07/04 08:05:10;;;;;;;170.23;154.02;;;18.20;97.30;;;;;;4977558;28;20051;-85
2022/07/04 08:07:37;;;;;;;168.73;152.23;;;18.20;97.00;;;;;;4978004;28;20209;-84
2022/07/04 08:10:06;;;;;;;163.10;147.50;;;18.30;97.00;;;;;;5010761;28;20054;-85
2022/07/04 08:12:33;;;;;;;156.95;142.05;;;18.30;96.50;;;;;;4994388;28;20047;-86
2022/07/04 08:15:00;;;;;;;155.00;140.70;;;18.30;96.50;;;;;;4993977;28;20065;-86
2022/07/04 08:17:28;;;;;;;150.30;136.35;;;18.30;96.40;;;;;;4994450;28;20054;-84
2022/07/04 08:19:55;;;;;;;154.52;140.25;;;18.30;96.30;;;;;;5010589;28;20600;-86
2022/07/04 08:22:23;;;;;;;154.45;140.38;;;18.40;95.70;;;;;;4993099;28;20054;-83
2022/07/04 08:24:50;;;;;;;156.02;141.63;;;18.40;95.60;;;;;;5010407;28;20133;-87
2022/07/04 08:27:17;;;;;;;154.30;139.68;;;18.40;95.60;;;;;;4994034;28;20050;-85
2022/07/04 08:29:44;;;;;;;154.35;140.43;;;18.50;95.60;;;;;;4993978;28;20102;-83
2022/07/04 08:32:11;;;;;;;172.60;155.80;;;18.50;95.30;;;;;;4994348;28;20058;-89
2022/07/04 08:34:38;;;;;;;167.85;152.48;;;18.50;94.70;;;;;;4978090;28;20054;-82
2022/07/04 08:37:05;;;;;;;163.60;147.60;;;18.60;94.00;;;;;;4993936;28;20043;-84
2022/07/04 08:39:33;;;;;;;164.18;148.70;;;18.60;94.00;;;;;;4993711;28;20061;-80
2022/07/04 08:42:04;;;;;;;166.23;150.75;;;18.60;93.70;;;;;;4994152;28;20065;-80
2022/07/04 08:44:33;;;;;;;153.50;139.90;;;18.60;94.00;;;;;;5009711;28;20086;-80
2022/07/04 08:47:00;;;;;;;158.15;143.40;;;18.70;93.20;;;;;;5009911;28;20053;-82
2022/07/04 08:49:32;;;;;;;152.30;138.38;;;18.70;93.50;;;;;;4990314;28;20051;-85
2022/07/04 08:52:03;;;;;;;164.00;148.23;;;18.70;93.20;;;;;;4973868;28;20089;-86
2022/07/04 09:00:05;;;;;;;162.25;147.15;;;18.80;94.10;;;;;;4994138;28;20057;-84
2022/07/04 09:02:34;;;;;;;153.68;139.45;;;18.80;94.50;;;;;;4993815;28;20055;-80
2022/07/04 09:05:01;;;;;;;159.45;144.45;;;18.90;94.40;;;;;;4993631;28;20150;-88
2022/07/04 09:07:31;;;;;;;170.38;153.80;;;19.00;93.90;;;;;;4993724;28;20059;-82
2022/07/04 09:09:59;;;;;;;156.88;142.10;;;19.00;93.70;;;;;;4992581;28;20103;-88
2022/07/04 09:12:27;;;;;;;155.63;141.15;;;19.10;93.50;;;;;;4976514;28;20524;-81
2022/07/04 09:14:55;;;;;;;158.80;143.85;;;19.10;92.50;;;;;;5010855;28;20496;-87
2022/07/04 09:17:22;;;;;;;149.65;136.02;;;19.20;92.70;;;;;;4977495;28;20053;-88
2022/07/04 09:20:14;;;;;;;148.80;135.20;;;19.10;92.50;;;;;;4994237;28;20138;-82
2022/07/04 09:22:41;;;;;;;149.15;135.65;;;19.20;92.40;;;;;;4977109;28;20047;-80
2022/07/04 09:25:08;;;;;;;147.65;134.25;;;19.10;92.60;;;;;;5007282;28;20065;-84
2022/07/04 09:27:39;;;;;;;152.75;138.48;;;19.10;92.80;;;;;;4992742;28;20050;-84
2022/07/04 09:30:07;;;;;;;153.57;139.77;;;19.10;93.10;;;;;;4991611;28;20122;-83
2022/07/04 09:32:36;;;;;;;155.30;141.30;;;19.10;93.10;;;;;;4992097;28;20142;-83
2022/07/04 09:35:05;;;;;;;164.70;149.85;;;19.10;92.30;;;;;;4991217;28;20155;-83
2022/07/04 09:37:41;;;;;;;153.85;140.23;;;19.10;92.00;;;;;;4991098;28;20094;-83
2022/07/04 09:40:10;;;;;;;153.43;139.90;;;19.10;91.90;;;;;;4991373;28;20141;-83
2022/07/04 09:42:41;;;;;;;158.57;144.68;;;19.10;92.10;;;;;;4991513;28;20051;-81
2022/07/04 09:45:10;;;;;;;155.60;141.30;;;19.10;91.80;;;;;;4989659;28;20584;-83
2022/07/04 09:47:38;;;;;;;154.07;139.88;;;19.20;91.20;;;;;;4991581;28;20158;-83
2022/07/04 09:50:08;;;;;;;150.90;137.30;;;19.20;91.20;;;;;;4992982;28;20063;-83
2022/07/04 09:52:46;;;;;;;152.02;138.43;;;19.20;91.30;;;;;;4992714;28;20086;-84
2022/07/04 09:55:12;;;;;;;154.07;139.88;;;19.20;91.10;;;;;;4992850;28;20090;-84
2022/07/04 09:57:45;;;;;;;149.15;135.45;;;19.20;91.30;;;;;;4992798;28;20050;-84
2022/07/04 10:00:21;;;;;;;152.30;138.63;;;19.20;91.20;;;;;;4992541;28;20134;-83
2022/07/04 10:02:48;;;;;;;159.10;145.07;;;19.30;91.10;;;;;;4990384;28;20058;-85
2022/07/04 10:05:21;;;;;;;162.70;148.10;;;19.30;90.60;;;;;;4991615;28;20047;-83
2022/07/04 10:07:48;;;;;;;160.13;145.75;;;19.30;90.10;;;;;;4991715;28;20042;-84
2022/07/04 10:10:28;;;;;;;151.70;137.70;;;19.30;90.30;;;;;;4974456;28;20070;-84
2022/07/04 10:12:58;;;;;;;161.93;146.40;;;19.30;90.10;;;;;;4990612;28;20138;-83
2022/07/04 10:15:25;;;;;;;150.73;136.82;;;19.30;89.80;;;;;;4990889;28;20046;-83
2022/07/04 10:17:52;;;;;;;152.27;138.35;;;19.30;89.70;;;;;;4990441;28;20117;-84
2022/07/04 10:20:19;;;;;;;155.75;141.35;;;19.30;88.80;;;;;;4974503;28;20055;-86
2022/07/04 10:22:47;;;;;;;145.80;132.35;;;19.40;89.20;;;;;;5007995;28;20487;-79
2022/07/04 10:25:14;;;;;;;148.60;135.13;;;19.40;89.60;;;;;;4992501;28;20055;-80
2022/07/04 10:27:41;;;;;;;154.82;140.63;;;19.40;87.50;;;;;;4991657;28;21025;-81
2022/07/04 10:30:14;;;;;;;158.50;144.60;;;19.40;86.80;;;;;;4992606;28;20137;-84
2022/07/04 10:32:43;;;;;;;173.90;157.80;;;19.30;86.30;;;;;;4976038;28;20067;-78
2022/07/04 10:35:14;;;;;;;167.35;151.88;;;19.30;86.90;;;;;;4992235;28;20110;-85
2022/07/04 10:38:07;;;;;;;168.40;152.90;;;19.30;86.40;;;;;;4974896;28;20055;-80
2022/07/04 10:40:45;;;;;;;169.25;153.73;;;19.30;87.60;;;;;;4992108;28;20075;-81
2022/07/04 10:44:00;;;;;;;167.05;152.13;;;19.30;87.60;;;;;;4975692;28;20049;-81
2022/07/04 10:46:33;;;;;;;168.70;153.70;;;19.30;88.90;;;;;;4971170;28;20042;-81
2022/07/04 10:49:01;;;;;;;161.77;147.40;;;19.30;88.60;;;;;;4992019;28;20161;-82
2022/07/04 10:51:41;;;;;;;166.95;152.45;;;19.40;89.00;;;;;;4991641;28;20057;-84
2022/07/04 10:54:11;;;;;;;174.93;160.13;;;19.40;88.90;;;;;;4991680;28;20055;-84
2022/07/04 10:56:42;;;;;;;172.80;157.80;;;19.50;89.40;;;;;;4994204;28;20138;-83
2022/07/04 10:59:11;;;;;;;168.73;153.77;;;19.60;90.20;;;;;;4994840;28;20054;-81
2022/07/04 11:01:40;;;;;;;157.27;143.00;;;19.60;90.20;;;;;;4995159;28;20053;-81
2022/07/04 11:04:06;;;;;;;153.30;139.20;;;19.70;89.20;;;;;;4994885;28;20166;-81
2022/07/04 11:06:55;;;;;;;167.43;153.13;;;19.70;88.40;;;;;;4994895;28;20881;-82
2022/07/04 11:09:24;;;;;;;166.10;151.45;;;19.80;87.20;;;;;;5011337;28;20054;-84
2022/07/04 11:11:52;;;;;;;163.98;149.07;;;19.80;89.40;;;;;;4994636;28;20137;-85
2022/07/04 11:14:39;;;;;;;170.93;156.23;;;19.80;87.80;;;;;;4994010;28;20151;-79
2022/07/04 11:17:09;;;;;;;187.55;171.88;;;19.90;88.10;;;;;;5011358;28;20137;-81
2022/07/04 11:19:36;;;;;;;177.65;162.23;;;19.90;89.00;;;;;;4995490;28;20058;-80
2022/07/04 11:22:04;;;;;;;177.60;162.50;;;19.90;88.90;;;;;;4994619;28;20182;-81
2022/07/04 11:24:32;;;;;;;177.90;162.60;;;20.00;89.10;;;;;;4994339;28;20051;-81
2022/07/04 11:27:00;;;;;;;163.30;148.80;;;20.10;87.20;;;;;;4994731;28;20616;-81
2022/07/04 11:29:27;;;;;;;160.50;146.13;;;20.20;84.40;;;;;;4994713;28;20126;-86
2022/07/04 11:31:55;;;;;;;188.60;172.30;;;20.20;82.80;;;;;;4994461;28;20130;-82
2022/07/04 11:34:23;;;;;;;177.95;162.90;;;20.20;82.50;;;;;;4994393;28;20062;-83
2022/07/04 11:36:52;;;;;;;160.43;146.30;;;20.30;83.50;;;;;;5009439;28;20054;-80
2022/07/04 11:39:20;;;;;;;160.82;147.13;;;20.30;82.50;;;;;;4993149;28;20141;-82
2022/07/04 11:47:22;;;;;;;162.38;148.35;;;20.30;78.30;;;;;;4991665;28;20086;-88
2022/07/04 11:49:52;;;;;;;156.10;141.80;;;20.30;79.70;;;;;;5004490;28;20154;-82
2022/07/04 11:52:21;;;;;;;159.30;146.07;;;20.30;76.80;;;;;;4993507;28;20066;-83
2022/07/04 11:54:49;;;;;;;160.45;146.93;;;20.20;77.50;;;;;;4994370;28;20062;-81
2022/07/04 11:57:24;;;;;;;154.98;142.18;;;20.30;77.30;;;;;;4994082;28;20135;-80
2022/07/04 11:59:59;;;;;;;147.40;134.60;;;20.30;76.60;;;;;;4994111;28;20233;-84
2022/07/04 12:02:27;;;;;;;155.00;141.90;;;20.40;74.80;;;;;;5010518;28;20130;-83
2022/07/04 12:04:57;;;;;;;151.23;137.68;;;20.40;74.60;;;;;;4994163;28;20141;-84
2022/07/04 12:07:25;;;;;;;155.77;141.25;;;20.50;74.90;;;;;;4991502;28;20051;-83
2022/07/04 12:09:53;;;;;;;154.00;140.18;;;20.50;75.40;;;;;;4992702;28;20134;-85
2022/07/04 12:12:21;;;;;;;156.23;142.88;;;20.50;75.20;;;;;;4992327;28;20055;-86
2022/07/04 12:15:00;;;;;;;158.90;145.43;;;20.50;77.00;;;;;;4992574;28;20059;-84
2022/07/04 12:17:32;;;;;;;158.82;144.27;;;20.60;78.00;;;;;;4992317;28;20054;-83
2022/07/04 12:20:03;;;;;;;155.13;140.88;;;20.70;75.80;;;;;;4993378;28;20592;-85
2022/07/04 12:22:35;;;;;;;157.68;144.07;;;20.70;77.00;;;;;;4993082;28;20061;-85
2022/07/04 12:25:07;;;;;;;161.68;148.38;;;20.70;75.30;;;;;;4994140;28;20058;-86
2022/07/04 12:27:35;;;;;;;154.55;141.52;;;20.70;77.30;;;;;;4993839;28;20514;-82
2022/07/04 12:30:04;;;;;;;153.30;140.10;;;20.80;73.80;;;;;;4993825;28;20047;-83
2022/07/04 12:32:50;;;;;;;157.43;143.95;;;20.90;72.90;;;;;;4994558;28;20134;-83
2022/07/04 12:35:39;;;;;;;150.02;136.88;;;20.90;72.50;;;;;;4994972;28;20149;-83
2022/07/04 12:38:08;;;;;;;156.73;143.25;;;20.90;73.60;;;;;;4993101;28;20134;-83
2022/07/04 12:40:35;;;;;;;152.32;139.32;;;20.90;71.30;;;;;;4993286;28;20078;-84